Flight Track Log - Related Links

Times and Time Zones

All times are in EDT time to prevent confusion due to time zone crossing. See the UAL4335 flight status page for this flight to view local times or setup timezone preferences in your user account.

Time Position Orientation Groundspeed Altitude Reporting Facility
EDT Latitude Longitude Course Direction KTS MPH feet Rate Location/Type
Wed 04:15:59 PM 29.9761 -95.3394 263° West 66 76 700  Level Houston Center
Wed 04:16:43 PM 29.9717 -95.3833 263° West 231 266 1,900 1,324 Climbing Houston Center
Wed 04:17:07 PM 29.9717 -95.4042 270° West 203 234 2,200 2,300 Climbing Houston Center
Wed 04:17:43 PM 29.9747 -95.4625 273° West 268 308 4,200 2,667 Climbing Houston Center
Wed 04:18:10 PM 29.9783 -95.4875 279° West 249 287 5,000 2,754 Climbing Houston Center
Wed 04:18:44 PM 29.9883 -95.5453 281° West 262 302 7,000 2,613 Climbing Houston Center
Wed 04:19:12 PM 29.9933 -95.5706 283° West 264 304 7,700 2,400 Climbing Houston Center
Wed 04:20:14 PM 30.0103 -95.6736 281° West 275 316 10,600 1,790 Climbing Houston Center
Wed 04:21:16 PM 30.0250 -95.7700 280° West 302 348 11,400 1,016 Climbing Houston Center
Wed 04:22:18 PM 30.0419 -95.8811 280° West 346 398 12,700 1,355 Climbing Houston Center
Wed 04:23:20 PM 30.0594 -95.9936 280° West 356 410 14,200 1,500 Climbing Houston Center
Wed 04:24:22 PM 30.0803 -96.1197 281° West 363 418 15,800 1,500 Climbing Houston Center
Wed 04:25:24 PM 30.0975 -96.2344 280° West 364 419 17,300 1,536 Climbing Houston Center
Wed 04:26:27 PM 30.1153 -96.3506 280° West 368 423 19,000 1,632 Climbing Houston Center
Wed 04:27:29 PM 30.1356 -96.4850 280° West 370 426 20,700 1,548 Climbing Houston Center
Wed 04:28:31 PM 30.1539 -96.6039 280° West 373 429 22,200 1,452 Climbing Houston Center
Wed 04:29:33 PM 30.1714 -96.7236 280° West 373 429 23,700 1,258 Climbing Houston Center
Wed 04:30:35 PM 30.1903 -96.8436 280° West 375 432 24,800 1,065 Climbing Houston Center
Wed 04:31:37 PM 30.2081 -96.9639 280° West 377 434 25,900 960 Climbing Houston Center
Wed 04:32:40 PM 30.2258 -97.0864 280° West 380 437 26,800 1,008 Climbing Houston Center
Wed 04:33:42 PM 30.2436 -97.2083 280° West 380 437 28,000 1,694 Climbing Houston Center
Wed 04:34:44 PM 30.2631 -97.3425 280° West 361 415 30,300 2,081 Climbing Houston Center
Wed 04:35:46 PM 30.2786 -97.4497 280° West 340 391 32,300 1,887 Climbing Houston Center
Wed 04:36:48 PM 30.2928 -97.5497 279° West 315 362 34,200 1,548 Climbing Houston Center
Wed 04:37:50 PM 30.3064 -97.6444 279° West 300 345 35,500 871 Climbing Houston Center
Wed 04:38:52 PM 30.3192 -97.7361 279° West 288 331 36,000 240 Climbing Houston Center
Wed 04:39:55 PM 30.3333 -97.8350 279° West 307 353 36,000  Level Houston Center
Wed 04:40:57 PM 30.3467 -97.9392 278° West 320 368 36,000  Level Houston Center
Wed 04:41:59 PM 30.3672 -98.0714 280° West 348 400 36,000  Level Houston Center
Wed 04:43:01 PM 30.3822 -98.1856 279° West 354 407 36,000  Level Houston Center
Wed 04:44:03 PM 30.3986 -98.3022 279° West 360 414 36,000  Level Houston Center
Wed 04:45:05 PM 30.4133 -98.4156 279° West 354 407 36,000  Level Houston Center
Wed 04:46:07 PM 30.4292 -98.5256 280° West 346 398 36,000  Level Houston Center
Wed 04:47:10 PM 30.4433 -98.6342 279° West 338 389 36,000  Level Houston Center
Wed 04:48:12 PM 30.4578 -98.7422 279° West 336 387 36,000  Level Houston Center
Wed 04:49:14 PM 30.4733 -98.8494 280° West 335 386 36,000  Level Houston Center
Wed 04:50:16 PM 30.4889 -98.9747 278° West 333 383 36,000  Level Houston Center
Wed 04:51:18 PM 30.5044 -99.0828 280° West 335 386 36,000  Level Houston Center
Wed 04:52:20 PM 30.5183 -99.1903 279° West 341 392 36,000  Level Houston Center
Wed 04:53:23 PM 30.5333 -99.3011 279° West 349 402 36,000  Level Houston Center
Wed 04:54:25 PM 30.5478 -99.4144 278° West 355 409 36,000  Level Houston Center
Wed 04:55:27 PM 30.5661 -99.5514 279° West 359 413 36,000  Level Houston Center
Wed 04:56:29 PM 30.5803 -99.6675 278° West 362 417 36,000  Level Houston Center
Wed 04:57:31 PM 30.5928 -99.7803 277° West 354 407 36,000  Level Houston Center
Wed 04:58:33 PM 30.6267 -99.8922 289° West 377 434 36,000  Level Houston Center
Wed 04:59:35 PM 30.6703 -100.0028 295° West 374 430 36,000  Level Houston Center
Wed 05:00:38 PM 30.7225 -100.1342 295° West 374 430 36,000  Level Houston Center
Wed 05:01:40 PM 30.7636 -100.2419 294° West 367 422 36,000  Level Houston Center
Wed 05:02:42 PM 30.8053 -100.3517 294° West 374 430 36,000  Level Houston Center
Wed 05:03:44 PM 30.8497 -100.4617 295° West 374 430 36,000  Level Houston Center
Wed 05:04:46 PM 30.8925 -100.5731 294° West 376 433 36,000  Level Houston Center
Wed 05:05:48 PM 30.9439 -100.7089 294° West 378 435 36,000  Level Houston Center
Wed 05:06:50 PM 30.9869 -100.8200 294° West 375 432 36,000  Level Houston Center
Wed 05:07:53 PM 31.0300 -100.9358 293° West 384 442 36,000  Level Houston Center
Wed 05:08:55 PM 31.0742 -101.0506 294° West 386 444 36,000  Level Houston Center
Wed 05:09:57 PM 31.1172 -101.1658 294° West 384 442 36,000  Level Houston Center
Wed 05:10:59 PM 31.1628 -101.2817 295° West 390 449 36,000  Level Houston Center
Wed 05:12:01 PM 31.2136 -101.4194 293° West 391 450 36,000  Level Houston Center
Wed 05:13:03 PM 31.2564 -101.5372 293° West 394 453 36,000  Level Houston Center
Wed 05:14:05 PM 31.3006 -101.6536 294° West 393 452 36,000  Level Houston Center
Wed 05:14:37 PM 31.3261 -101.7242 293° West 395 455 36,000  Level Albuquerque Center
Wed 05:15:40 PM 31.3906 -101.8356 304° West 423 487 36,000  Level Albuquerque Center
Wed 05:16:19 PM 31.4361 -101.8956 312° West 413 475 36,000  Level Fort Worth Center
Wed 05:16:42 PM 31.4656 -101.9414 307° West 434 499 36,000  Level Albuquerque Center
Wed 05:17:44 PM 31.5583 -102.0667 311° West 428 493 36,000  Level Albuquerque Center
Wed 05:18:46 PM 31.6333 -102.1714 310° West 424 488 36,000  Level Albuquerque Center
Wed 05:19:20 PM 31.6781 -102.2367 309° West 432 497 36,000  Level Fort Worth Center
Wed 05:20:20 PM 31.7533 -102.3433 310° West 432 497 36,000  Level Fort Worth Center
Wed 05:21:20 PM 31.8306 -102.4475 311° West 432 497 36,000  Level Fort Worth Center
Wed 05:22:20 PM 31.9014 -102.5542 308° West 427 491 36,000  Level Fort Worth Center
Wed 05:24:58 PM 32.0978 -102.8281 310° West 419 482 36,000  Level Albuquerque Center
Wed 05:26:00 PM 32.1714 -102.9325 310° West 414 476 36,000  Level Albuquerque Center
Wed 05:27:02 PM 32.2456 -103.0367 310° West 412 474 36,000  Level Albuquerque Center
Wed 05:28:04 PM 32.3200 -103.1428 310° West 415 478 36,000  Level Albuquerque Center
Wed 05:29:06 PM 32.3936 -103.2481 310° West 415 478 36,000  Level Albuquerque Center
Wed 05:30:08 PM 32.4669 -103.3542 309° West 415 478 36,000  Level Albuquerque Center
Wed 05:31:10 PM 32.5419 -103.4611 310° West 420 483 36,000  Level Albuquerque Center
Wed 05:32:12 PM 32.6319 -103.5919 309° West 426 490 36,000  Level Albuquerque Center
Wed 05:33:14 PM 32.7072 -103.7017 309° West 428 493 36,000  Level Albuquerque Center
Wed 05:34:16 PM 32.7917 -103.8164 311° West 437 503 36,000  Level Albuquerque Center
Wed 05:35:18 PM 32.8733 -103.9361 309° West 435 501 36,000  Level Albuquerque Center
Wed 05:36:20 PM 32.9506 -104.0478 310° West 437 503 36,000  Level Albuquerque Center
Wed 05:37:22 PM 33.0339 -104.1700 309° West 441 507 36,000  Level Albuquerque Center
Wed 05:38:24 PM 33.1100 -104.2836 309° West 440 506 36,000  Level Albuquerque Center
Wed 05:39:26 PM 33.1839 -104.3933 309° West 428 493 36,000  Level Albuquerque Center
Wed 05:40:28 PM 33.2561 -104.5042 308° West 422 486 36,000  Level Albuquerque Center
Wed 05:41:30 PM 33.3300 -104.6106 310° West 418 481 36,000 -1,065 Level Albuquerque Center
Wed 05:42:32 PM 33.4214 -104.7200 315° West 427 491 33,800 -1,887 Descending Albuquerque Center
Wed 05:43:34 PM 33.5122 -104.8247 316° Northwest 422 486 32,100 -871 Descending Albuquerque Center
Wed 05:44:36 PM 33.5922 -104.9197 315° West 405 466 32,000 -48 Descending Albuquerque Center
Wed 05:45:38 PM 33.6750 -105.0161 316° Northwest 389 448 32,000  Level Albuquerque Center
Wed 05:46:40 PM 33.7564 -105.1111 316° Northwest 406 467 32,000  Level Albuquerque Center
Wed 05:47:42 PM 33.8394 -105.2058 317° Northwest 412 474 32,000 -293 Level Albuquerque Center
Wed 05:48:43 PM 33.9281 -105.3106 316° Northwest 422 486 31,400 -1,024 Descending Albuquerque Center
Wed 05:49:45 PM 34.0119 -105.4097 316° Northwest 422 486 29,900 -1,258 Descending Albuquerque Center
Wed 05:50:47 PM 34.0917 -105.5031 316° Northwest 409 471 28,800 -968 Descending Albuquerque Center
Wed 05:51:49 PM 34.1678 -105.5942 315° West 395 455 27,900 -968 Descending Albuquerque Center
Wed 05:52:51 PM 34.2458 -105.6828 317° Northwest 388 447 26,800 -968 Descending Albuquerque Center
Wed 05:53:53 PM 34.3208 -105.7703 316° Northwest 379 436 25,900 -919 Descending Albuquerque Center
Wed 05:54:55 PM 34.3744 -105.8750 302° West 371 427 24,900 -1,065 Descending Albuquerque Center
Wed 05:55:57 PM 34.3939 -106.0244 279° West 378 435 23,700 -1,271 Descending Albuquerque Center
Wed 05:56:20 PM 34.3983 -106.0728 276° West 370 426 23,100 -1,548 Descending Albuquerque Center
Wed 05:56:59 PM 34.4089 -106.1469 280° West 370 426 22,100 -1,750 Descending Albuquerque Center
Wed 05:57:32 PM 34.4147 -106.2103 276° West 359 413 21,000 -2,032 Descending Albuquerque Center
Wed 05:58:01 PM 34.4206 -106.2678 277° West 362 417 20,000 -2,066 Descending Albuquerque Center
Wed 05:58:33 PM 34.4289 -106.3381 278° West 354 407 18,900 -1,967 Descending Albuquerque Center
Wed 05:59:02 PM 34.4339 -106.3861 277° West 357 411 18,000 -1,475 Descending Albuquerque Center
Wed 05:59:34 PM 34.4422 -106.4478 279° West 330 380 17,400 -1,161 Descending Albuquerque Center
Wed 06:00:04 PM 34.4456 -106.4928 275° West 335 386 16,800 -1,400 Descending Albuquerque Center
Wed 06:00:34 PM 34.4531 -106.5456 280° West 281 323 16,000 -1,452 Descending Albuquerque Center
Wed 06:01:06 PM 34.4719 -106.5769 306° West 283 326 15,300 -1,574 Descending Albuquerque Center
Wed 06:01:35 PM 34.5078 -106.6139 320° Northwest 288 331 14,400 -1,645 Descending Albuquerque Center
Wed 06:02:08 PM 34.5378 -106.6364 328° Northwest 291 335 13,600 -1,700 Descending Albuquerque Center
Wed 06:02:35 PM 34.5797 -106.6600 335° Northwest 292 336 12,700 -1,548 Descending Albuquerque Center
Wed 06:03:10 PM 34.6103 -106.6775 335° Northwest 290 334 12,000 -1,574 Descending Albuquerque Center
Wed 06:03:36 PM 34.6522 -106.6956 341° North 282 325 11,100 -1,377 Descending Albuquerque Center
Wed 06:04:11 PM 34.6817 -106.7083 340° North 282 325 10,600 -984 Descending Albuquerque Center
Wed 06:04:37 PM 34.7186 -106.7225 343° North 239 275 10,100 -1,065 Descending Albuquerque Center
Wed 06:05:13 PM 34.7608 -106.7350 346° North 257 296 9,500 -900 Descending Albuquerque Center
Wed 06:05:37 PM 34.7869 -106.7464 340° North 254 292 9,200 -871 Descending Albuquerque Center
Wed 06:06:15 PM 34.8289 -106.7622 343° North 255 293 8,600 -984 Descending Albuquerque Center
Wed 06:06:38 PM 34.8567 -106.7672 352° North 259 298 8,200 -581 Descending Albuquerque Center
Wed 06:07:17 PM 34.8958 -106.7597 North 246 283 8,000 -537 Descending Albuquerque Center
Wed 06:07:45 PM 34.9256 -106.7469 19° North 215 247 7,600 -857 Descending Albuquerque Center

Login

Don't have an account? Register now (free) for customized features, flight alerts, and more!